Anderson Island, Washington
Current Conditions -  °F | °C
As of 10:48 AM on Tuesday 27 Jan 2015 (Local Time) from KGRF Reporting Station
Drizzle Drizzle  
Wind Chill: 45°   Ceiling: 1600
Heat Index: 48°   Visibility: 4mi
Dew Point: 48°   Wind: 7mph
Humidity: 100%   Direction: 170°S
Pressure: 30.09"   Gusts: NA
Location:  47.16°N, 122.7°W
Report Text: KGRF 271848Z 17006KT 4SM -DZ BR BKN016 OVC027 09/09 A3009
Loading
Personal Weather Stations






























Interactive Weather Map New forecast layout! Learn more

10-Day Weather Forecast

Advertisements
Track Severe Weather on mobile